Time;durP1;ratioP1;P1;durP2;ratioP2;P2;SDS_P1;SDS_P2;PMS_P1;PMS_P2;Temp;Humidity;BMP_temperature;BMP_pressure;BME280_temperature;BME280_humidity;BME280_pressure;Samples;Min_cycle;Max_cycle;Signal;HPM_P1;HPM_P2
2022/06/10 00:00:38;;;;;;;1999.90;999.90;;;10.30;99.90;;;;;;5037573;28;20040;-87
2022/06/10 00:03:05;;;;;;;1999.90;999.90;;;10.20;99.90;;;;;;5036119;28;20082;-86
2022/06/10 00:05:36;;;;;;;1999.90;999.90;;;10.20;99.90;;;;;;5049163;28;20036;-88
2022/06/10 00:08:11;;;;;;;;;;;10.20;99.90;;;;;;5030836;28;20070;-87
2022/06/10 00:10:37;;;;;;;1999.90;999.90;;;10.10;99.90;;;;;;5026231;28;19917;-87
2022/06/10 00:13:03;;;;;;;1999.90;999.90;;;10.10;99.90;;;;;;5028900;28;20028;-88
2022/06/10 00:15:29;;;;;;;1999.90;999.90;;;10.10;99.90;;;;;;5028558;28;20049;-88
2022/06/10 00:17:55;;;;;;;1999.90;999.90;;;10.10;99.90;;;;;;5029560;28;20506;-87
2022/06/10 00:20:25;;;;;;;1999.90;999.90;;;10.10;99.90;;;;;;5032216;28;20061;-87
2022/06/10 00:22:51;;;;;;;1999.90;999.90;;;10.00;99.90;;;;;;5043291;28;20074;-88
2022/06/10 00:25:18;;;;;;;1999.90;999.90;;;10.00;99.90;;;;;;5036553;28;20108;-88
2022/06/10 00:27:45;;;;;;;1999.90;999.90;;;9.90;99.90;;;;;;5034308;28;20334;-87
2022/06/10 00:30:12;;;;;;;1999.90;999.90;;;9.90;99.90;;;;;;5041095;28;20068;-88
2022/06/10 00:32:38;;;;;;;1999.90;999.90;;;9.90;99.90;;;;;;5036279;28;20538;-88
2022/06/10 00:35:05;;;;;;;1999.90;999.90;;;9.80;99.90;;;;;;5018282;28;20037;-88
2022/06/10 00:37:31;;;;;;;1999.90;999.90;;;9.80;99.90;;;;;;5029368;28;20056;-87
2022/06/10 00:39:57;;;;;;;1999.90;999.90;;;9.80;99.90;;;;;;5033025;28;20259;-89
2022/06/10 00:42:23;;;;;;;1999.90;999.90;;;9.80;99.90;;;;;;5030729;28;20025;-88
2022/06/10 00:44:52;;;;;;;1999.90;999.90;;;9.70;99.90;;;;;;5029688;28;20029;-87
2022/06/10 00:47:39;;;;;;;1999.90;999.90;;;9.70;99.90;;;;;;5062919;28;20029;-88
2022/06/10 00:50:13;;;;;;;1999.90;999.90;;;9.70;99.90;;;;;;5034308;28;20192;-88
2022/06/10 00:52:43;;;;;;;1999.90;999.90;;;9.70;99.90;;;;;;5039962;28;20028;-88
2022/06/10 00:55:09;;;;;;;1999.90;999.90;;;9.60;99.90;;;;;;5033399;28;20088;-89
2022/06/10 00:57:40;;;;;;;1999.90;999.90;;;9.60;99.90;;;;;;5032522;28;20614;-89
2022/06/10 01:00:14;;;;;;;1999.90;999.90;;;9.60;99.90;;;;;;5038519;28;20581;-88
2022/06/10 01:02:40;;;;;;;1999.90;999.90;;;9.60;99.90;;;;;;5034192;28;20029;-88
2022/06/10 01:05:20;;;;;;;1999.90;999.90;;;9.50;99.90;;;;;;5031128;28;20036;-89
2022/06/10 01:07:51;;;;;;;1999.90;999.90;;;9.50;99.90;;;;;;5029636;28;20493;-88
2022/06/10 01:10:18;;;;;;;1999.90;999.90;;;9.40;99.90;;;;;;5032316;28;20108;-88
2022/06/10 01:13:07;;;;;;;1999.90;999.90;;;9.40;99.90;;;;;;5025541;28;20491;-88
2022/06/10 01:15:39;;;;;;;1999.90;999.90;;;9.40;99.90;;;;;;5025476;28;20029;-87
2022/06/10 01:18:38;;;;;;;1999.90;999.90;;;9.50;99.90;;;;;;5026631;28;20029;-86
2022/06/10 01:21:14;;;;;;;1999.90;999.90;;;9.40;99.90;;;;;;5038666;28;20029;-87
2022/06/10 01:24:01;;;;;;;1999.90;999.90;;;9.40;99.90;;;;;;5040624;28;20484;-87
2022/06/10 01:27:47;;;;;;;1999.90;999.90;;;9.40;99.90;;;;;;5039636;28;20587;-88
2022/06/10 01:29:45;;;;;;;1999.90;999.90;;;9.40;99.90;;;;;;5038202;28;20030;-87
2022/06/10 01:32:26;;;;;;;1999.90;999.90;;;9.40;99.90;;;;;;5019159;28;20568;-88
2022/06/10 01:35:14;;;;;;;1999.90;999.90;;;9.30;99.90;;;;;;5009074;28;20547;-88
2022/06/10 01:37:55;;;;;;;1999.90;999.90;;;9.30;99.90;;;;;;5015051;28;20170;-87
2022/06/10 01:40:48;;;;;;;1999.90;999.90;;;9.30;99.90;;;;;;5010295;28;20030;-89
2022/06/10 01:43:39;;;;;;;1999.90;999.90;;;9.40;99.90;;;;;;5008191;28;20073;-87
2022/06/10 01:46:15;;;;;;;1999.90;999.90;;;9.30;99.90;;;;;;5007333;28;20109;-87
2022/06/10 01:48:58;;;;;;;1999.90;999.90;;;9.30;99.90;;;;;;5012630;28;20033;-87
2022/06/10 01:51:31;;;;;;;1999.90;999.90;;;9.30;99.90;;;;;;5021551;28;20033;-88
2022/06/10 01:54:08;;;;;;;1999.90;999.90;;;9.30;99.90;;;;;;5023514;28;20017;-87
2022/06/10 01:56:39;;;;;;;1999.90;999.90;;;9.30;99.90;;;;;;5017599;28;20033;-88
2022/06/10 01:59:21;;;;;;;1999.90;999.90;;;9.20;99.90;;;;;;5014898;28;20029;-89
2022/06/10 02:01:54;;;;;;;1999.90;999.90;;;9.20;99.90;;;;;;5016143;28;20498;-89
2022/06/10 02:04:30;;;;;;;1999.90;999.90;;;9.20;99.90;;;;;;5015694;28;20085;-88
2022/06/10 02:06:58;;;;;;;1999.90;999.90;;;9.20;99.90;;;;;;5013203;28;20083;-87
2022/06/10 02:10:09;;;;;;;1999.90;999.90;;;9.30;99.90;;;;;;5007545;28;20044;-88
2022/06/10 02:12:41;;;;;;;1999.90;999.90;;;9.30;99.90;;;;;;4964678;28;20069;-89
2022/06/10 02:15:18;;;;;;;1999.90;999.90;;;9.20;99.90;;;;;;4964359;28;20050;-88
2022/06/10 02:18:00;;;;;;;1999.90;999.90;;;9.20;99.90;;;;;;4990994;28;20037;-88
2022/06/10 02:20:29;;;;;;;1999.90;999.90;;;9.20;99.90;;;;;;5021344;28;20096;-88
2022/06/10 02:22:57;;;;;;;1999.90;999.90;;;9.10;99.90;;;;;;5020373;28;20095;-89
2022/06/10 02:25:39;;;;;;;1999.90;999.90;;;9.10;99.90;;;;;;5014482;28;20170;-89
2022/06/10 02:28:10;;;;;;;1999.90;999.90;;;9.10;99.90;;;;;;5002937;28;20027;-88
2022/06/10 02:30:43;;;;;;;1999.90;999.90;;;9.00;99.90;;;;;;5013344;28;20037;-87
2022/06/10 02:33:10;;;;;;;1999.90;999.90;;;9.10;99.90;;;;;;5015987;28;20029;-87
2022/06/10 02:35:46;;;;;;;1999.90;999.90;;;9.00;99.90;;;;;;5010357;28;20057;-89
2022/06/10 02:38:20;;;;;;;1999.90;999.90;;;9.10;99.90;;;;;;5009269;28;20108;-88
2022/06/10 02:41:08;;;;;;;1999.90;999.90;;;9.00;99.90;;;;;;5011724;28;20076;-88
2022/06/10 02:43:58;;;;;;;1999.90;999.90;;;9.00;99.90;;;;;;5008190;28;20099;-88
2022/06/10 02:46:30;;;;;;;1999.90;999.90;;;9.10;99.90;;;;;;4997734;28;20038;-89
2022/06/10 02:49:10;;;;;;;1999.90;999.90;;;9.10;99.90;;;;;;5013264;28;20116;-88
2022/06/10 02:51:37;;;;;;;1999.90;999.90;;;9.10;99.90;;;;;;5019817;28;20053;-89
2022/06/10 02:54:06;;;;;;;1999.90;999.90;;;9.10;99.90;;;;;;5000641;28;20052;-88
2022/06/10 02:56:32;;;;;;;1999.90;999.90;;;9.10;99.90;;;;;;5013099;28;20056;-88
2022/06/10 03:02:29;;;;;;;1999.90;999.90;;;9.10;99.90;;;;;;5016933;28;20073;-88
2022/06/10 03:05:03;;;;;;;1999.90;999.90;;;9.10;99.90;;;;;;5018269;28;20033;-87
2022/06/10 03:07:40;;;;;;;1999.90;999.90;;;9.10;99.90;;;;;;5043162;28;20025;-88
2022/06/10 03:10:30;;;;;;;1999.90;999.90;;;9.10;99.90;;;;;;5029107;28;20022;-88
2022/06/10 03:13:35;;;;;;;1999.90;999.90;;;9.10;99.90;;;;;;5012246;28;20495;-88
2022/06/10 03:16:28;;;;;;;1999.90;999.90;;;9.20;99.90;;;;;;5012691;28;20539;-88
2022/06/10 03:19:07;;;;;;;1999.90;999.90;;;9.20;99.90;;;;;;5042586;28;20046;-87
2022/06/10 03:21:55;;;;;;;1999.90;999.90;;;9.20;99.90;;;;;;5027827;28;20030;-88
2022/06/10 03:24:40;;;;;;;1999.90;999.90;;;9.10;99.90;;;;;;5021825;28;20026;-88
2022/06/10 03:27:14;;;;;;;1999.90;999.90;;;9.10;99.90;;;;;;5007717;28;20027;-88
2022/06/10 03:29:53;;;;;;;1999.90;999.90;;;9.20;99.90;;;;;;5021147;28;20029;-88
2022/06/10 03:32:32;;;;;;;1999.90;999.90;;;9.20;99.90;;;;;;5014444;28;20054;-87
2022/06/10 03:35:15;;;;;;;1999.90;999.90;;;9.20;99.90;;;;;;5016685;28;20028;-88
2022/06/10 03:37:41;;;;;;;1999.90;999.90;;;9.20;99.90;;;;;;5014560;28;20493;-87
2022/06/10 03:40:25;;;;;;;1999.90;999.90;;;9.20;99.90;;;;;;5014297;28;20057;-88
2022/06/10 03:42:55;;;;;;;1999.90;999.90;;;9.20;99.90;;;;;;5006353;28;20034;-88
2022/06/10 03:45:24;;;;;;;1999.90;999.90;;;9.30;99.90;;;;;;5009641;28;20448;-88
2022/06/10 03:47:50;;;;;;;1999.90;999.90;;;9.30;99.90;;;;;;5013249;28;20486;-88
2022/06/10 03:50:21;;;;;;;1999.90;999.90;;;9.40;99.90;;;;;;5020833;28;20043;-88
2022/06/10 03:52:47;;;;;;;1999.90;999.90;;;9.40;99.90;;;;;;5020876;28;20034;-88
2022/06/10 03:55:18;;;;;;;1999.90;999.90;;;9.30;99.90;;;;;;5017070;28;20025;-88
2022/06/10 03:57:45;;;;;;;1999.90;999.90;;;9.40;99.90;;;;;;5022331;28;20027;-88
2022/06/10 04:00:20;;;;;;;1999.90;999.90;;;9.30;99.90;;;;;;5019745;28;20045;-83
2022/06/10 04:02:45;;;;;;;1999.90;999.90;;;9.30;99.90;;;;;;5017972;28;20049;-88
2022/06/10 04:05:13;;;;;;;1999.90;999.90;;;9.30;99.90;;;;;;5013117;28;20042;-87
2022/06/10 04:07:40;;;;;;;1999.90;999.90;;;9.40;99.90;;;;;;5013932;28;20025;-88
2022/06/10 04:10:07;;;;;;;1999.90;999.90;;;9.30;99.90;;;;;;5011755;28;20113;-88
2022/06/10 04:12:33;;;;;;;1999.90;999.90;;;9.40;99.90;;;;;;5006440;28;20069;-88
2022/06/10 04:14:58;;;;;;;1999.90;999.90;;;9.40;99.90;;;;;;5010490;28;20034;-87
2022/06/10 04:17:24;;;;;;;1999.90;999.90;;;9.40;99.90;;;;;;5005468;28;20046;-88
2022/06/10 04:19:49;;;;;;;1999.90;999.90;;;9.40;99.90;;;;;;5021304;28;20099;-88
2022/06/10 04:22:16;;;;;;;1999.90;999.90;;;9.50;99.90;;;;;;5025711;28;20033;-87
2022/06/10 04:24:42;;;;;;;1999.90;999.90;;;9.50;99.90;;;;;;5017044;28;20249;-88
2022/06/10 04:27:08;;;;;;;1999.90;999.90;;;9.40;99.90;;;;;;5004365;28;20033;-87
2022/06/10 04:29:34;;;;;;;1999.90;999.90;;;9.50;99.90;;;;;;5015484;28;20029;-88
2022/06/10 04:31:59;;;;;;;1999.90;999.90;;;9.60;99.90;;;;;;5017369;28;20044;-87
2022/06/10 04:34:25;;;;;;;1999.90;999.90;;;9.50;99.90;;;;;;5015714;28;21386;-87
2022/06/10 04:36:51;;;;;;;1999.90;999.90;;;9.60;99.90;;;;;;5013855;28;20339;-88
2022/06/10 04:39:16;;;;;;;1999.90;999.90;;;9.70;99.90;;;;;;5013028;28;20037;-88
2022/06/10 04:41:42;;;;;;;1999.90;999.90;;;9.70;99.90;;;;;;5015601;28;20025;-87
2022/06/10 04:44:08;;;;;;;1999.90;999.90;;;9.80;99.90;;;;;;5017505;28;20034;-87
2022/06/10 04:46:41;;;;;;;1999.90;999.90;;;9.80;99.90;;;;;;5007572;28;20108;-87
2022/06/10 04:49:07;;;;;;;1999.90;999.90;;;9.80;99.90;;;;;;5023984;28;20018;-87
2022/06/10 04:51:34;;;;;;;1999.90;999.90;;;9.90;99.90;;;;;;5022486;28;20038;-87
2022/06/10 04:54:00;;;;;;;1999.90;999.90;;;9.90;99.90;;;;;;5020014;28;20033;-88
2022/06/10 04:56:26;;;;;;;1999.90;999.90;;;10.00;99.90;;;;;;5017227;28;20120;-88
2022/06/10 04:58:51;;;;;;;1999.90;999.90;;;10.00;99.90;;;;;;5017084;28;20041;-88
2022/06/10 05:01:17;;;;;;;1999.90;999.90;;;10.10;99.90;;;;;;5016574;28;20584;-88
2022/06/10 05:03:43;;;;;;;1999.90;999.90;;;10.20;99.90;;;;;;5012403;28;20034;-87
2022/06/10 05:06:09;;;;;;;1999.90;999.90;;;10.30;99.90;;;;;;4996821;28;20033;-88
2022/06/10 05:08:35;;;;;;;1999.90;999.90;;;10.50;99.90;;;;;;5013330;28;20037;-88
2022/06/10 05:11:01;;;;;;;1999.90;999.90;;;10.60;99.90;;;;;;5010226;28;20083;-87
2022/06/10 05:13:26;;;;;;;1999.90;999.90;;;10.70;99.90;;;;;;5008794;28;20319;-87
2022/06/10 05:15:53;;;;;;;1999.90;999.90;;;10.80;99.90;;;;;;5008699;28;20042;-87
2022/06/10 05:18:22;;;;;;;1999.90;999.90;;;10.90;99.90;;;;;;5010932;28;20025;-88
2022/06/10 05:20:48;;;;;;;1999.90;999.90;;;10.80;99.90;;;;;;5020438;28;20033;-87
2022/06/10 05:23:16;;;;;;;1999.90;999.90;;;10.80;99.90;;;;;;5015843;28;20034;-87
2022/06/10 05:25:42;;;;;;;1999.90;999.90;;;10.80;99.90;;;;;;5021665;28;20064;-88
2022/06/10 05:28:09;;;;;;;1999.90;999.90;;;11.10;99.90;;;;;;5002470;28;20560;-88
2022/06/10 05:30:35;;;;;;;1999.90;999.90;;;11.30;99.90;;;;;;5014689;28;20060;-87
2022/06/10 05:33:03;;;;;;;1999.90;999.90;;;11.50;99.90;;;;;;5011202;28;20048;-88
2022/06/10 05:35:29;;;;;;;1999.90;999.90;;;11.50;99.90;;;;;;5015704;28;20222;-87
2022/06/10 05:37:55;;;;;;;1999.90;999.90;;;11.60;99.90;;;;;;4996426;28;20401;-87
2022/06/10 05:40:24;;;;;;;1999.90;999.90;;;11.80;99.90;;;;;;4994985;28;20029;-87
2022/06/10 05:42:50;;;;;;;1999.90;999.90;;;11.90;99.90;;;;;;5012393;28;20493;-89
2022/06/10 05:45:17;;;;;;;1999.90;999.90;;;12.10;99.90;;;;;;5009458;28;20217;-88
2022/06/10 05:47:45;;;;;;;1999.90;999.90;;;12.10;99.90;;;;;;4995595;28;20111;-88
2022/06/10 05:50:19;;;;;;;1999.90;999.90;;;12.20;99.90;;;;;;5016758;28;20143;-88
2022/06/10 05:52:44;;;;;;;1999.90;999.90;;;12.10;99.90;;;;;;5020584;28;20029;-87
2022/06/10 05:55:11;;;;;;;1999.90;999.90;;;12.10;99.90;;;;;;5020767;28;20519;-88
2022/06/10 05:57:38;;;;;;;1999.90;999.90;;;12.00;99.90;;;;;;5018545;28;20113;-87
2022/06/10 06:00:08;;;;;;;1999.90;999.90;;;12.00;99.90;;;;;;5010230;28;20558;-87
2022/06/10 06:02:33;;;;;;;1999.90;999.90;;;12.10;99.90;;;;;;5006424;28;20499;-86
2022/06/10 06:04:59;;;;;;;1999.90;999.90;;;12.10;99.90;;;;;;5013985;28;20068;-88
2022/06/10 06:07:28;;;;;;;1999.90;999.90;;;12.00;99.90;;;;;;5014360;28;20634;-89
2022/06/10 06:09:55;;;;;;;1999.90;999.90;;;12.20;99.90;;;;;;5008553;28;20030;-88
2022/06/10 06:12:22;;;;;;;1999.90;999.90;;;12.30;99.90;;;;;;5010320;28;20061;-87
2022/06/10 06:14:47;;;;;;;1999.90;999.90;;;12.30;99.90;;;;;;5005734;28;20701;-88
2022/06/10 06:17:14;;;;;;;1999.90;999.90;;;12.50;99.90;;;;;;5006065;28;20118;-86
2022/06/10 06:19:40;;;;;;;1999.90;999.90;;;12.50;99.90;;;;;;5019561;28;20034;-88
2022/06/10 06:22:07;;;;;;;1999.90;999.90;;;12.60;99.90;;;;;;5007405;28;20060;-87
2022/06/10 06:24:34;;;;;;;1999.90;999.90;;;12.70;99.90;;;;;;5023612;28;20075;-87
2022/06/10 06:27:01;;;;;;;1999.90;999.90;;;12.90;99.90;;;;;;5015488;28;20022;-89
2022/06/10 06:29:27;;;;;;;1999.90;999.90;;;13.10;99.90;;;;;;5018614;28;20674;-88
2022/06/10 06:31:52;;;;;;;1999.90;999.90;;;13.20;99.90;;;;;;5016580;28;20041;-87
2022/06/10 06:34:22;;;;;;;1999.90;999.90;;;13.10;99.90;;;;;;5014903;28;20056;-88
2022/06/10 06:36:51;;;;;;;1999.90;999.90;;;13.20;99.90;;;;;;5015027;28;20113;-88
2022/06/10 06:39:19;;;;;;;1999.90;999.90;;;13.40;99.90;;;;;;5010384;28;20042;-91
2022/06/10 06:41:45;;;;;;;1999.90;999.90;;;13.50;99.90;;;;;;5011821;28;20030;-88
2022/06/10 06:44:11;;;;;;;1999.90;999.90;;;13.60;99.90;;;;;;4998161;28;20350;-87
2022/06/10 06:46:39;;;;;;;1999.90;999.90;;;13.70;99.90;;;;;;5005499;28;20018;-87
2022/06/10 06:49:09;;;;;;;1999.90;999.90;;;13.80;99.90;;;;;;5019514;28;20426;-88
2022/06/10 06:51:35;;;;;;;1999.90;999.90;;;13.90;99.90;;;;;;5021987;28;20078;-88
2022/06/10 06:54:01;;;;;;;1999.90;999.90;;;14.10;99.90;;;;;;5017933;28;20026;-87
2022/06/10 06:56:28;;;;;;;1999.90;999.90;;;14.30;99.90;;;;;;5019929;28;20554;-88
2022/06/10 06:58:54;;;;;;;1999.90;999.90;;;14.30;99.90;;;;;;5021842;28;20042;-87
2022/06/10 07:01:19;;;;;;;1999.90;999.90;;;14.40;99.90;;;;;;5019992;28;20038;-88
2022/06/10 07:03:45;;;;;;;1999.90;999.90;;;14.60;99.90;;;;;;5015932;28;20116;-87
2022/06/10 07:06:11;;;;;;;1999.90;999.90;;;14.70;99.90;;;;;;5015858;28;20052;-88
2022/06/10 07:08:37;;;;;;;1999.90;999.90;;;14.80;99.90;;;;;;5015409;28;20022;-88
2022/06/10 07:11:05;;;;;;;1999.90;999.90;;;14.80;99.90;;;;;;5008569;28;20037;-88
2022/06/10 07:13:31;;;;;;;1999.90;999.90;;;14.90;99.90;;;;;;5007305;28;20025;-87
2022/06/10 07:16:00;;;;;;;1999.90;999.90;;;15.00;99.90;;;;;;4989129;28;20524;-89
2022/06/10 07:18:27;;;;;;;1999.90;999.90;;;14.90;99.90;;;;;;5006387;28;20044;-88
2022/06/10 07:20:52;;;;;;;1999.90;999.90;;;15.10;99.90;;;;;;5024211;28;20065;-87
2022/06/10 07:23:19;;;;;;;1999.90;999.90;;;15.40;99.90;;;;;;5018846;28;20473;-88
2022/06/10 07:25:46;;;;;;;1999.90;999.90;;;15.60;99.90;;;;;;5020241;28;20243;-87
2022/06/10 07:28:13;;;;;;;1999.90;999.90;;;15.50;98.20;;;;;;5018088;28;20042;-88
2022/06/10 07:30:40;;;;;;;1999.90;999.90;;;15.60;99.90;;;;;;5001473;28;20065;-88
2022/06/10 07:33:06;;;;;;;1999.90;999.90;;;15.80;98.60;;;;;;4995547;28;20477;-87
2022/06/10 07:35:33;;;;;;;1999.90;999.90;;;15.90;99.90;;;;;;5015739;28;20029;-87
2022/06/10 07:37:58;;;;;;;1999.90;999.90;;;16.10;93.90;;;;;;5016169;28;20116;-87
2022/06/10 07:43:17;;;;;;;1999.90;999.90;;;16.30;92.60;;;;;;5011669;28;20121;-88
2022/06/10 07:45:43;;;;;;;1999.90;999.90;;;16.50;90.10;;;;;;5007736;28;20069;-87
2022/06/10 07:48:11;;;;;;;1999.90;999.90;;;16.50;85.20;;;;;;5001845;28;20500;-87
2022/06/10 07:50:37;;;;;;;1999.90;999.90;;;16.80;91.60;;;;;;5013527;28;20104;-87
2022/06/10 07:53:02;;;;;;;1999.90;999.90;;;17.10;81.60;;;;;;5019116;28;20036;-88
2022/06/10 07:55:28;;;;;;;1999.90;999.90;;;17.20;82.50;;;;;;5016502;28;20022;-87
2022/06/10 07:57:54;;;;;;;1999.90;999.90;;;17.10;76.20;;;;;;5017284;28;20400;-88
2022/06/10 08:00:21;;;;;;;1999.90;999.90;;;17.30;84.30;;;;;;5014779;28;20607;-87
2022/06/10 08:02:47;;;;;;;1999.90;999.90;;;17.60;86.70;;;;;;5019042;28;20072;-87
2022/06/10 08:05:16;;;;;;;1999.90;999.90;;;17.80;80.20;;;;;;5014477;28;20492;-87
2022/06/10 08:07:42;;;;;;;1999.90;999.90;;;18.00;75.50;;;;;;5012480;28;20496;-87
2022/06/10 08:10:20;;;;;;;1999.90;999.90;;;17.90;78.30;;;;;;5010370;28;20473;-87
2022/06/10 08:12:46;;;;;;;1999.90;999.90;;;17.90;69.20;;;;;;5008402;28;20036;-87
2022/06/10 08:15:13;;;;;;;1999.90;999.90;;;17.90;62.50;;;;;;5011593;28;20097;-88
2022/06/10 08:17:39;;;;;;;1999.90;999.90;;;18.00;67.20;;;;;;5022801;28;20298;-87
2022/06/10 08:20:06;;;;;;;1999.90;999.90;;;18.10;70.40;;;;;;5011636;28;20025;-87
2022/06/10 08:22:32;;;;;;;1999.90;999.90;;;17.70;72.70;;;;;;5023953;28;20026;-87
2022/06/10 08:24:58;;;;;;;1999.90;999.90;;;17.70;70.40;;;;;;5022015;28;20080;-88
2022/06/10 08:27:23;;;;;;;1999.90;999.90;;;17.70;70.60;;;;;;5018699;28;20029;-88
2022/06/10 08:29:49;;;;;;;1999.90;999.90;;;17.50;69.70;;;;;;5013488;28;20233;-88
2022/06/10 08:32:15;;;;;;;1999.90;999.90;;;17.40;69.20;;;;;;4999485;28;20040;-88
2022/06/10 08:34:43;;;;;;;1999.90;999.90;;;17.10;72.00;;;;;;5013895;28;20116;-88
2022/06/10 08:37:10;;;;;;;1999.90;999.90;;;16.70;82.30;;;;;;5011852;28;20124;-88
2022/06/10 08:39:35;;;;;;;1999.90;999.90;;;16.50;84.70;;;;;;5025548;28;20041;-88
2022/06/10 08:42:34;;;;;;;1999.90;999.90;;;17.30;86.80;;;;;;5010089;28;20025;-88
2022/06/10 08:45:12;;;;;;;1999.90;999.90;;;17.20;88.30;;;;;;5015444;28;20811;-88
2022/06/10 08:48:06;;;;;;;1999.90;999.90;;;18.10;84.60;;;;;;5010690;28;20029;-87
2022/06/10 08:50:52;;;;;;;1999.90;999.90;;;18.50;67.70;;;;;;5017049;28;20044;-88
2022/06/10 08:53:45;;;;;;;1999.90;999.90;;;18.80;65.00;;;;;;5012713;28;20026;-87
2022/06/10 08:56:13;;;;;;;1999.90;999.90;;;18.90;58.70;;;;;;5014936;28;20052;-87
2022/06/10 08:59:04;;;;;;;1999.90;999.90;;;19.20;63.60;;;;;;5013827;28;20021;-87
2022/06/10 09:01:42;;;;;;;1999.90;999.90;;;19.60;64.60;;;;;;5015456;28;20049;-89
2022/06/10 09:04:35;;;;;;;1999.90;999.90;;;19.80;58.90;;;;;;5011049;28;20519;-87
2022/06/10 09:07:12;;;;;;;1999.90;999.90;;;19.70;64.00;;;;;;5010925;28;20029;-87
2022/06/10 09:09:41;;;;;;;1999.90;999.90;;;20.20;53.70;;;;;;5008643;28;20485;-87
2022/06/10 09:12:27;;;;;;;1999.90;999.90;;;20.20;62.30;;;;;;5004304;28;20033;-86
2022/06/10 09:14:58;;;;;;;1999.90;999.90;;;20.10;57.80;;;;;;5033137;28;20461;-87
2022/06/10 09:17:27;;;;;;;1999.90;999.90;;;20.30;65.30;;;;;;4999129;28;20032;-86
2022/06/10 09:20:21;;;;;;;1999.90;999.90;;;20.20;60.90;;;;;;5023309;28;20025;-87
2022/06/10 09:23:30;;;;;;;1999.90;999.90;;;20.70;57.90;;;;;;5021437;28;20484;-87
2022/06/10 09:26:06;;;;;;;1999.90;999.90;;;20.60;62.40;;;;;;5018335;28;20409;-87
2022/06/10 09:28:31;;;;;;;1999.90;999.90;;;20.80;56.50;;;;;;5015037;28;20509;-87
2022/06/10 09:31:02;;;;;;;1999.90;999.90;;;20.40;61.50;;;;;;5013259;28;20042;-87
2022/06/10 09:33:28;;;;;;;1999.90;999.90;;;20.30;57.40;;;;;;5016085;28;20045;-86
2022/06/10 09:36:15;;;;;;;1999.90;999.90;;;20.70;52.30;;;;;;5008542;28;20378;-86
2022/06/10 09:38:45;;;;;;;1999.90;999.90;;;20.90;55.70;;;;;;5006714;28;20026;-87
2022/06/10 09:41:35;;;;;;;1999.90;999.90;;;21.10;56.30;;;;;;5019612;28;20030;-87
2022/06/10 09:44:10;;;;;;;1999.90;999.90;;;21.50;52.50;;;;;;5042761;28;20036;-86
2022/06/10 09:46:45;;;;;;;1999.90;999.90;;;21.90;51.70;;;;;;5016712;28;20029;-88
2022/06/10 09:49:29;;;;;;;1999.90;999.90;;;21.60;52.00;;;;;;5017309;28;20026;-86
2022/06/10 09:52:25;;;;;;;1999.90;999.90;;;21.80;56.50;;;;;;5042674;28;20041;-86
2022/06/10 09:55:18;;;;;;;1999.90;999.90;;;21.90;55.80;;;;;;5011140;28;20508;-86
2022/06/10 09:58:24;;;;;;;1999.90;999.90;;;22.30;51.90;;;;;;5003039;28;20034;-86
2022/06/10 10:01:03;;;;;;;1999.90;999.90;;;22.30;52.00;;;;;;5008535;28;20073;-86
2022/06/10 10:03:51;;;;;;;1999.90;999.90;;;23.00;44.50;;;;;;5026941;28;20080;-86
2022/06/10 10:06:23;;;;;;;1999.90;999.90;;;22.00;48.20;;;;;;5011766;28;20030;-86
2022/06/10 10:09:12;;;;;;;1999.90;999.90;;;22.00;52.30;;;;;;5009151;28;20037;-86
2022/06/10 10:12:08;;;;;;;1999.90;999.90;;;22.60;47.60;;;;;;5007007;28;20033;-86
2022/06/10 10:14:52;;;;;;;1999.90;999.90;;;22.40;50.00;;;;;;5005795;28;20037;-86
2022/06/10 10:17:43;;;;;;;1999.90;999.90;;;22.60;52.70;;;;;;5015687;28;20051;-87
2022/06/10 10:20:29;;;;;;;1999.90;999.90;;;23.20;45.00;;;;;;5023953;28;20025;-86
2022/06/10 10:23:18;;;;;;;1999.90;999.90;;;22.50;49.60;;;;;;5016506;28;20025;-87
2022/06/10 10:25:45;;;;;;;1999.90;999.90;;;22.50;51.20;;;;;;5014161;28;20029;-86
2022/06/10 10:28:25;;;;;;;1999.90;999.90;;;23.10;47.60;;;;;;5013237;28;20063;-87
2022/06/10 10:30:58;;;;;;;1999.90;999.90;;;23.70;46.30;;;;;;5013596;28;20034;-86
2022/06/10 10:33:24;;;;;;;1999.90;999.90;;;24.10;44.10;;;;;;5003847;28;20112;-86
2022/06/10 10:35:53;;;;;;;1999.90;999.90;;;22.60;42.30;;;;;;5011200;28;20075;-86
2022/06/10 10:38:43;;;;;;;1999.90;999.90;;;22.50;43.40;;;;;;4990956;28;20027;-85
2022/06/10 10:41:32;;;;;;;1999.90;999.90;;;22.10;46.80;;;;;;5008682;28;20030;-86
2022/06/10 10:44:05;;;;;;;1999.90;999.90;;;22.40;48.90;;;;;;5008232;28;20408;-86
2022/06/10 10:46:30;;;;;;;1999.90;999.90;;;22.40;55.30;;;;;;4996690;28;20120;-87
2022/06/10 10:48:57;;;;;;;1999.90;999.90;;;22.00;46.40;;;;;;5017503;28;20113;-87
2022/06/10 10:51:36;;;;;;;1999.90;999.90;;;21.30;47.30;;;;;;5018156;28;20095;-87
2022/06/10 10:54:12;;;;;;;1999.90;999.90;;;21.10;51.60;;;;;;5019934;28;20041;-87
2022/06/10 10:56:40;;;;;;;1999.90;999.90;;;21.00;46.30;;;;;;5019755;28;20156;-86
2022/06/10 10:59:37;;;;;;;1999.90;999.90;;;21.30;51.00;;;;;;5015276;28;20803;-87
2022/06/10 11:02:51;;;;;;;1999.90;999.90;;;20.70;47.90;;;;;;5014250;28;20048;-87
2022/06/10 11:05:20;;;;;;;1999.90;999.90;;;20.40;54.40;;;;;;4985753;28;20038;-86
2022/06/10 11:07:46;;;;;;;1999.90;999.90;;;20.50;51.20;;;;;;5009284;28;20104;-86
2022/06/10 11:10:20;;;;;;;1999.90;999.90;;;20.50;52.50;;;;;;5006958;28;20033;-87
2022/06/10 11:12:45;;;;;;;1999.90;999.90;;;20.20;51.00;;;;;;5007727;28;20651;-87
2022/06/10 11:15:31;;;;;;;1999.90;999.90;;;20.80;49.10;;;;;;5004431;28;20034;-87
2022/06/10 11:17:59;;;;;;;1999.90;999.90;;;21.10;49.50;;;;;;5000312;28;20033;-87
2022/06/10 11:20:28;;;;;;;1999.90;999.90;;;21.10;49.00;;;;;;5014874;28;20030;-86
2022/06/10 11:23:22;;;;;;;1999.90;999.90;;;20.90;49.30;;;;;;5020968;28;20030;-87
2022/06/10 11:26:13;;;;;;;1999.90;999.90;;;20.60;52.20;;;;;;5012394;28;20033;-87
2022/06/10 11:28:41;;;;;;;1999.90;999.90;;;21.60;51.70;;;;;;5007091;28;20511;-87
2022/06/10 11:31:23;;;;;;;1999.90;999.90;;;22.10;45.10;;;;;;5018414;28;20060;-87
2022/06/10 11:33:52;;;;;;;1999.90;999.90;;;21.80;42.70;;;;;;5012604;28;20247;-87
2022/06/10 11:36:27;;;;;;;1999.90;999.90;;;21.70;45.10;;;;;;5010866;28;20034;-87
2022/06/10 11:39:27;;;;;;;1999.90;999.90;;;21.80;43.70;;;;;;5007139;28;20807;-87
2022/06/10 11:41:58;;;;;;;1999.90;999.90;;;22.00;44.40;;;;;;5014087;28;20116;-87
2022/06/10 11:44:28;;;;;;;1999.90;999.90;;;21.70;48.50;;;;;;5015681;28;20037;-87
2022/06/10 11:47:12;;;;;;;1999.90;999.90;;;21.60;49.20;;;;;;5002901;28;20056;-87
2022/06/10 11:50:06;;;;;;;1999.90;999.90;;;21.60;47.40;;;;;;5020958;28;20030;-87
2022/06/10 11:52:54;;;;;;;1999.90;999.90;;;21.20;48.80;;;;;;5013962;28;20037;-87
2022/06/10 11:55:30;;;;;;;1999.90;999.90;;;21.30;50.10;;;;;;5022657;28;20083;-87
2022/06/10 12:01:23;;;;;;;1999.90;999.90;;;21.80;51.10;;;;;;5014047;28;20096;-87
2022/06/10 12:04:02;;;;;;;1999.90;999.90;;;23.70;44.80;;;;;;5007491;28;20030;-86
2022/06/10 12:06:36;;;;;;;1999.90;999.90;;;24.80;41.50;;;;;;5012822;28;20057;-86
2022/06/10 12:09:09;;;;;;;1999.90;999.90;;;25.50;37.80;;;;;;5011545;28;20053;-87
2022/06/10 12:11:46;;;;;;;1999.90;999.90;;;26.50;31.40;;;;;;5010288;28;20033;-86
2022/06/10 12:14:20;;;;;;;1999.90;999.90;;;27.20;29.50;;;;;;5010643;28;20030;-87
2022/06/10 12:16:50;;;;;;;1999.90;999.90;;;29.00;28.40;;;;;;5024186;28;20341;-87
2022/06/10 12:19:39;;;;;;;1999.90;999.90;;;28.40;29.00;;;;;;5020347;28;20112;-87
2022/06/10 12:22:08;;;;;;;1999.90;999.90;;;28.80;28.30;;;;;;5014122;28;20030;-86
2022/06/10 12:24:33;;;;;;;1999.90;999.90;;;27.30;31.20;;;;;;5021314;28;20402;-86
2022/06/10 12:27:06;;;;;;;1999.90;999.90;;;27.50;31.70;;;;;;5008996;28;20033;-87
2022/06/10 12:29:54;;;;;;;1999.90;999.90;;;27.80;29.10;;;;;;5012861;28;20022;-86
2022/06/10 12:32:54;;;;;;;1999.90;999.90;;;28.00;29.10;;;;;;5013000;28;20044;-86
2022/06/10 12:35:32;;;;;;;1999.90;999.90;;;27.40;30.90;;;;;;4985998;28;20038;-87
2022/06/10 12:38:04;;;;;;;1999.90;999.90;;;26.00;33.70;;;;;;5013410;28;20026;-87
2022/06/10 12:40:42;;;;;;;1999.90;999.90;;;24.70;34.60;;;;;;5010407;28;20045;-87
2022/06/10 12:43:38;;;;;;;1999.90;999.90;;;24.40;35.50;;;;;;5007068;28;20100;-87